Perla, Arkansas
Current Conditions -  °F | °C
As of 8:53 AM on Monday 24 Nov 2014 (Local Time) from KHOT Reporting Station
Clear Clear  
Wind Chill: 45°   Ceiling: Unl
Heat Index: 48°   Visibility: 10mi
Dew Point: 34°   Wind: 6mph
Humidity: 58%   Direction: 270°W
Pressure: 29.92"   Gusts: NA
Location:  34.3189°N, 92.8629°W
Report Text: KHOT 241453Z AUTO 27005KT 10SM CLR 09/01 A2992 RMK AO2 SLP128 T00890011 52035
Loading
Personal Weather Stations






























Interactive Weather Map New forecast layout! Learn more

10-Day Weather Forecast

Advertisements
Track Severe Weather on mobile